createdAt,value
2022-08-26T00:01:56.852Z,23.65
2022-08-26T00:04:26.127Z,25.58
2022-08-26T00:06:55.566Z,23.90
2022-08-26T00:09:25.026Z,26.58
2022-08-26T00:11:54.361Z,21.08
2022-08-26T00:14:28.244Z,21.17
2022-08-26T00:16:58.606Z,22.77
2022-08-26T00:19:26.009Z,25.20
2022-08-26T00:21:53.189Z,22.02
2022-08-26T00:24:21.828Z,21.67
2022-08-26T00:26:49.861Z,25.38
2022-08-26T00:29:18.099Z,17.98
2022-08-26T00:31:45.798Z,21.58
2022-08-26T00:34:14.320Z,23.48
2022-08-26T00:36:43.689Z,22.75
2022-08-26T00:39:11.587Z,21.83
2022-08-26T00:41:40.453Z,26.15
2022-08-26T00:44:10.457Z,26.70
2022-08-26T00:46:46.994Z,18.75
2022-08-26T00:49:19.822Z,25.40
2022-08-26T00:51:56.957Z,28.85
2022-08-26T00:54:27.305Z,31.65
2022-08-26T00:56:57.722Z,24.45
2022-08-26T00:59:29.328Z,29.02
2022-08-26T01:02:02.808Z,20.42
2022-08-26T01:04:33.621Z,27.90
2022-08-26T01:07:01.494Z,27.80
2022-08-26T01:09:30.321Z,32.88
2022-08-26T01:12:00.748Z,28.10
2022-08-26T01:14:32.841Z,24.55
2022-08-26T01:17:03.090Z,25.85
2022-08-26T01:19:46.246Z,31.30
2022-08-26T01:22:38.775Z,28.80
2022-08-26T01:25:06.821Z,25.10
2022-08-26T01:27:35.507Z,24.77
2022-08-26T01:30:05.605Z,23.10
2022-08-26T01:32:34.468Z,24.08
2022-08-26T01:35:02.445Z,27.73
2022-08-26T01:37:36.821Z,29.48
2022-08-26T01:40:14.928Z,28.25
2022-08-26T01:42:44.609Z,25.13
2022-08-26T01:45:18.602Z,30.17
2022-08-26T01:47:50.100Z,28.08
2022-08-26T01:50:31.345Z,24.10
2022-08-26T01:53:03.994Z,20.85
2022-08-26T01:55:34.144Z,24.13
2022-08-26T01:58:05.613Z,27.40
2022-08-26T02:00:35.875Z,23.45
2022-08-26T02:03:18.065Z,27.92
2022-08-26T02:05:59.140Z,27.90
2022-08-26T02:08:39.327Z,30.70
2022-08-26T02:11:07.517Z,24.48
2022-08-26T02:13:39.959Z,29.17
2022-08-26T02:16:08.912Z,27.08
2022-08-26T02:18:39.123Z,25.38
2022-08-26T02:21:08.190Z,32.53
2022-08-26T02:23:35.916Z,30.40
2022-08-26T02:26:07.488Z,31.92
2022-08-26T02:28:45.415Z,27.58
2022-08-26T02:31:13.129Z,24.63
2022-08-26T02:33:43.177Z,26.20
2022-08-26T02:36:12.115Z,32.30
2022-08-26T02:38:40.939Z,23.35
2022-08-26T02:41:11.309Z,29.85
2022-08-26T02:43:38.555Z,29.88
2022-08-26T02:46:06.108Z,21.80
2022-08-26T02:48:33.657Z,31.75
2022-08-26T02:51:01.958Z,30.95
2022-08-26T02:53:31.930Z,28.90
2022-08-26T02:56:03.941Z,26.52
2022-08-26T02:58:31.867Z,30.25
2022-08-26T03:00:59.659Z,30.92
2022-08-26T03:03:28.954Z,29.05
2022-08-26T03:05:58.204Z,30.55
2022-08-26T03:08:25.380Z,33.28
2022-08-26T03:10:53.054Z,36.35
2022-08-26T03:13:20.475Z,27.75
2022-08-26T03:15:47.861Z,32.08
2022-08-26T03:18:16.154Z,35.50
2022-08-26T03:20:44.016Z,44.97
2022-08-26T03:23:12.584Z,32.80
2022-08-26T03:25:40.228Z,39.38
2022-08-26T03:28:07.845Z,40.83
2022-08-26T03:30:45.410Z,33.15
2022-08-26T03:33:14.062Z,38.65
2022-08-26T03:35:43.616Z,42.03
2022-08-26T03:38:11.782Z,41.42
2022-08-26T03:40:39.943Z,41.55
2022-08-26T03:43:10.205Z,41.05
2022-08-26T03:45:38.804Z,47.97
2022-08-26T03:48:06.796Z,46.50
2022-08-26T03:50:35.791Z,40.38
2022-08-26T03:53:03.905Z,40.38
2022-08-26T03:55:33.474Z,39.90
2022-08-26T03:58:02.163Z,38.70
2022-08-26T04:00:30.028Z,40.33
2022-08-26T04:02:57.651Z,37.90
2022-08-26T04:05:25.408Z,45.45
2022-08-26T04:07:52.740Z,47.75
2022-08-26T04:10:29.115Z,40.42
2022-08-26T04:12:59.278Z,34.70
2022-08-26T04:15:27.507Z,41.45
2022-08-26T04:17:55.792Z,42.35
2022-08-26T04:20:23.433Z,44.92
2022-08-26T04:22:51.353Z,35.50
2022-08-26T04:25:18.809Z,41.08
2022-08-26T04:27:48.544Z,37.55
2022-08-26T04:30:16.808Z,39.40
2022-08-26T04:32:44.981Z,36.70
2022-08-26T04:35:12.246Z,40.95
2022-08-26T04:37:39.723Z,37.30
2022-08-26T04:40:11.732Z,41.35
2022-08-26T04:42:39.063Z,40.80
2022-08-26T04:45:10.313Z,33.05
2022-08-26T04:47:38.912Z,32.58
2022-08-26T04:50:07.682Z,29.77
2022-08-26T04:52:36.829Z,29.27
2022-08-26T04:55:06.681Z,36.95
2022-08-26T04:57:36.473Z,39.83
2022-08-26T05:00:08.756Z,36.55
2022-08-26T05:02:36.511Z,36.28
2022-08-26T05:05:05.331Z,28.90
2022-08-26T05:07:33.263Z,32.72
2022-08-26T05:10:00.601Z,30.40
2022-08-26T05:12:29.758Z,32.00
2022-08-26T05:14:57.074Z,37.13
2022-08-26T05:17:24.706Z,31.48
2022-08-26T05:19:52.180Z,44.50
2022-08-26T05:22:20.265Z,34.67
2022-08-26T05:24:47.656Z,33.70
2022-08-26T05:27:15.809Z,38.25
2022-08-26T05:29:44.997Z,42.97
2022-08-26T05:32:12.436Z,42.58
2022-08-26T05:34:39.941Z,30.00
2022-08-26T05:37:11.504Z,30.52
2022-08-26T05:39:41.336Z,30.88
2022-08-26T05:42:11.143Z,30.58
2022-08-26T05:44:53.804Z,32.58
2022-08-26T05:47:24.393Z,24.58
2022-08-26T05:49:52.169Z,31.25
2022-08-26T05:52:20.281Z,42.30
2022-08-26T05:54:47.835Z,28.33
2022-08-26T05:57:16.013Z,33.28
2022-08-26T05:59:45.851Z,32.05
2022-08-26T06:02:13.425Z,37.38
2022-08-26T06:04:41.403Z,30.58
2022-08-26T06:07:11.590Z,28.58
2022-08-26T06:09:40.635Z,33.47
2022-08-26T06:12:07.917Z,25.25
2022-08-26T06:14:36.139Z,24.85
2022-08-26T06:17:05.096Z,28.80
2022-08-26T06:19:32.797Z,27.50
2022-08-26T06:22:23.526Z,23.15
2022-08-26T06:25:10.799Z,27.13
2022-08-26T06:27:38.606Z,26.15
2022-08-26T06:30:06.882Z,28.27
2022-08-26T06:32:34.410Z,31.98
2022-08-26T06:35:01.781Z,31.20
2022-08-26T06:37:29.415Z,35.80
2022-08-26T06:39:57.099Z,36.88
2022-08-26T06:42:25.188Z,34.38
2022-08-26T06:44:52.909Z,42.78
2022-08-26T06:47:20.643Z,39.03
2022-08-26T06:49:48.091Z,47.08
2022-08-26T06:52:22.512Z,45.80
2022-08-26T06:54:51.768Z,42.60
2022-08-26T06:57:20.690Z,35.33
2022-08-26T06:59:48.746Z,28.63
2022-08-26T07:02:18.841Z,30.15
2022-08-26T07:04:47.875Z,27.25
2022-08-26T07:07:15.718Z,30.17
2022-08-26T07:09:43.295Z,26.42
2022-08-26T07:12:10.823Z,30.55
2022-08-26T07:14:38.489Z,25.70
2022-08-26T07:17:10.109Z,24.20
2022-08-26T07:19:40.928Z,24.10
2022-08-26T07:22:08.611Z,28.80
2022-08-26T07:24:41.187Z,24.52
2022-08-26T07:27:13.336Z,29.25
2022-08-26T07:29:42.509Z,33.65
2022-08-26T07:32:11.632Z,24.80
2022-08-26T07:34:41.943Z,28.00
2022-08-26T07:37:10.327Z,29.58
2022-08-26T07:39:38.081Z,27.40
2022-08-26T07:42:09.228Z,30.75
2022-08-26T07:44:37.818Z,23.85
2022-08-26T07:47:19.344Z,23.13
2022-08-26T07:49:56.431Z,25.38
2022-08-26T07:52:26.923Z,26.40
2022-08-26T07:54:58.223Z,23.35
2022-08-26T07:57:29.585Z,30.42
2022-08-26T07:59:59.903Z,28.60
2022-08-26T08:02:29.379Z,32.78
2022-08-26T08:04:58.411Z,26.92
2022-08-26T08:07:44.590Z,29.73
2022-08-26T08:10:16.832Z,23.92
2022-08-26T08:12:44.495Z,26.63
2022-08-26T08:15:13.976Z,28.55
2022-08-26T08:17:47.560Z,24.52
2022-08-26T08:20:18.685Z,26.20
2022-08-26T08:22:46.109Z,30.77
2022-08-26T08:25:14.860Z,23.98
2022-08-26T08:27:45.276Z,24.55
2022-08-26T08:30:14.063Z,25.45
2022-08-26T08:32:43.724Z,23.92
2022-08-26T08:35:17.273Z,27.70
2022-08-26T08:37:50.975Z,28.92
2022-08-26T08:40:18.814Z,32.85
2022-08-26T08:43:09.787Z,25.05
2022-08-26T08:45:49.903Z,22.52
2022-08-26T08:48:28.191Z,22.92
2022-08-26T08:51:27.221Z,30.08
2022-08-26T08:53:56.236Z,27.27
2022-08-26T08:56:26.475Z,27.02
2022-08-26T08:59:06.052Z,30.83
2022-08-26T09:01:52.477Z,25.90
2022-08-26T09:04:36.603Z,21.30
2022-08-26T09:07:13.047Z,23.20
2022-08-26T09:10:09.637Z,24.08
2022-08-26T09:12:40.701Z,22.52
2022-08-26T09:15:27.472Z,23.30
2022-08-26T09:18:11.197Z,17.20
2022-08-26T09:20:56.440Z,20.15
2022-08-26T09:23:25.201Z,24.65
2022-08-26T09:25:57.241Z,21.13
2022-08-26T09:28:27.154Z,24.05
2022-08-26T09:31:20.293Z,25.60
2022-08-26T09:33:48.817Z,25.00
2022-08-26T09:36:24.961Z,20.52
2022-08-26T09:38:54.240Z,19.30
2022-08-26T09:41:28.217Z,20.55
2022-08-26T09:44:20.832Z,22.38
2022-08-26T09:46:59.456Z,29.08
2022-08-26T09:49:37.680Z,22.40
2022-08-26T09:52:24.740Z,20.27
2022-08-26T09:55:22.423Z,16.33
2022-08-26T09:57:55.042Z,19.95
2022-08-26T10:00:31.585Z,19.35
2022-08-26T10:03:01.046Z,11.20
2022-08-26T10:05:37.520Z,14.48
2022-08-26T10:08:23.221Z,16.10
2022-08-26T10:10:53.088Z,16.65
2022-08-26T10:13:32.807Z,13.00
2022-08-26T10:16:14.582Z,18.00
2022-08-26T10:21:39.508Z,24.38
2022-08-26T10:24:11.283Z,20.23
2022-08-26T10:26:45.322Z,20.17
2022-08-26T10:29:29.689Z,16.13
2022-08-26T10:32:31.109Z,18.73
2022-08-26T10:34:58.597Z,18.43
2022-08-26T10:37:36.450Z,14.35
2022-08-26T10:40:55.218Z,15.35
2022-08-26T10:43:28.497Z,19.48
2022-08-26T10:46:08.452Z,10.73
2022-08-26T10:48:44.962Z,18.95
2022-08-26T10:51:13.542Z,11.70
2022-08-26T10:53:51.625Z,11.33
2022-08-26T10:56:24.563Z,15.63
2022-08-26T10:59:29.571Z,13.55
2022-08-26T11:02:11.885Z,14.45
2022-08-26T11:05:00.046Z,15.90
2022-08-26T11:07:43.865Z,12.90
2022-08-26T11:10:38.044Z,11.75
2022-08-26T11:13:07.179Z,13.95
2022-08-26T11:15:40.816Z,9.97
2022-08-26T11:18:12.448Z,14.98
2022-08-26T11:20:47.400Z,12.68
2022-08-26T11:23:20.798Z,14.68
2022-08-26T11:26:16.473Z,15.20
2022-08-26T11:29:04.482Z,14.85
2022-08-26T11:31:39.541Z,12.15
2022-08-26T11:34:12.674Z,10.23
2022-08-26T11:36:46.180Z,9.85
2022-08-26T11:39:55.481Z,11.13
2022-08-26T11:44:58.030Z,12.68
2022-08-26T11:47:31.997Z,14.70
2022-08-26T11:50:11.461Z,7.95
2022-08-26T11:52:39.802Z,9.90
2022-08-26T11:55:14.702Z,11.43
2022-08-26T11:57:45.953Z,13.75
2022-08-26T12:02:52.649Z,10.20
2022-08-26T12:05:31.368Z,11.88
2022-08-26T12:08:22.086Z,10.65
2022-08-26T12:10:49.541Z,13.07
2022-08-26T12:13:26.368Z,7.97
2022-08-26T12:15:56.462Z,13.23
2022-08-26T12:18:34.940Z,8.07
2022-08-26T12:21:13.095Z,13.40
2022-08-26T12:23:47.231Z,13.60
2022-08-26T12:26:30.392Z,9.50
2022-08-26T12:29:19.826Z,10.50
2022-08-26T12:32:14.955Z,8.43
2022-08-26T12:34:44.353Z,8.63
2022-08-26T12:37:14.295Z,6.35
2022-08-26T12:39:44.910Z,7.03
2022-08-26T12:42:12.374Z,10.82
2022-08-26T12:44:53.232Z,10.43
2022-08-26T12:47:43.418Z,7.28
2022-08-26T12:50:31.216Z,8.40
2022-08-26T12:53:10.246Z,8.60
2022-08-26T12:56:41.750Z,9.70
2022-08-26T12:59:18.158Z,7.07
2022-08-26T13:01:46.877Z,9.20
2022-08-26T13:04:34.326Z,8.70
2022-08-26T13:07:26.983Z,5.45
2022-08-26T13:09:57.592Z,7.80
2022-08-26T13:12:31.255Z,6.85
2022-08-26T13:15:00.223Z,7.93
2022-08-26T13:17:29.194Z,8.35
2022-08-26T13:20:02.690Z,7.63
2022-08-26T13:22:31.933Z,8.00
2022-08-26T13:24:59.472Z,6.35
2022-08-26T13:27:27.330Z,8.20
2022-08-26T13:29:57.734Z,6.85
2022-08-26T13:32:27.249Z,6.57
2022-08-26T13:34:56.665Z,10.77
2022-08-26T13:37:24.314Z,8.15
2022-08-26T13:40:05.447Z,9.38
2022-08-26T13:42:33.020Z,10.07
2022-08-26T13:45:02.444Z,7.43
2022-08-26T13:47:31.327Z,12.27
2022-08-26T13:49:58.626Z,11.32
2022-08-26T13:52:30.508Z,8.70
2022-08-26T13:55:00.419Z,7.55
2022-08-26T13:57:30.242Z,9.25
2022-08-26T13:59:59.479Z,11.95
2022-08-26T14:02:28.103Z,11.13
2022-08-26T14:04:56.099Z,12.05
2022-08-26T14:07:23.723Z,15.88
2022-08-26T14:09:51.290Z,13.27
2022-08-26T14:12:18.560Z,9.77
2022-08-26T14:14:45.917Z,10.38
2022-08-26T14:17:21.883Z,10.10
2022-08-26T14:19:50.569Z,7.57
2022-08-26T14:22:19.818Z,11.73
2022-08-26T14:24:47.525Z,11.40
2022-08-26T14:27:14.891Z,7.95
2022-08-26T14:29:42.640Z,8.27
2022-08-26T14:32:21.864Z,9.05
2022-08-26T14:34:50.380Z,9.88
2022-08-26T14:37:18.966Z,7.68
2022-08-26T14:39:46.584Z,7.80
2022-08-26T14:42:17.906Z,12.20
2022-08-26T14:44:48.813Z,8.85
2022-08-26T14:47:16.335Z,8.77
2022-08-26T14:49:43.710Z,7.07
2022-08-26T14:52:10.942Z,8.77
2022-08-26T14:54:38.446Z,13.85
2022-08-26T14:57:08.586Z,8.80
2022-08-26T14:59:40.963Z,10.13
2022-08-26T15:02:13.715Z,6.85
2022-08-26T15:04:57.229Z,11.18
2022-08-26T15:07:24.726Z,10.40
2022-08-26T15:09:51.959Z,6.38
2022-08-26T15:12:19.395Z,8.75
2022-08-26T15:14:47.000Z,9.90
2022-08-26T15:17:14.244Z,12.32
2022-08-26T15:19:41.482Z,13.63
2022-08-26T15:22:09.124Z,10.07
2022-08-26T15:24:36.676Z,15.50
2022-08-26T15:27:04.001Z,9.77
2022-08-26T15:29:31.619Z,6.55
2022-08-26T15:32:04.645Z,7.47
2022-08-26T15:34:32.251Z,7.82
2022-08-26T15:36:59.487Z,11.65
2022-08-26T15:39:27.330Z,5.93
2022-08-26T15:41:56.319Z,16.00
2022-08-26T15:44:25.511Z,4.90
2022-08-26T15:46:58.391Z,5.55
2022-08-26T15:49:26.769Z,10.00
2022-08-26T15:51:54.005Z,8.85
2022-08-26T15:54:23.482Z,9.93
2022-08-26T15:56:52.550Z,8.93
2022-08-26T15:59:21.847Z,8.60
2022-08-26T16:01:50.350Z,9.10
2022-08-26T16:04:18.734Z,5.88
2022-08-26T16:06:50.273Z,8.70
2022-08-26T16:09:19.630Z,8.60
2022-08-26T16:11:49.468Z,8.30
2022-08-26T16:14:16.980Z,14.05
2022-08-26T16:16:44.268Z,8.38
2022-08-26T16:19:11.878Z,10.13
2022-08-26T16:21:40.666Z,11.27
2022-08-26T16:24:08.114Z,14.80
2022-08-26T16:26:37.606Z,13.77
2022-08-26T16:29:10.629Z,13.93
2022-08-26T16:31:38.655Z,11.15
2022-08-26T16:34:07.555Z,9.75
2022-08-26T16:36:36.301Z,10.18
2022-08-26T16:39:05.001Z,10.73
2022-08-26T16:41:32.348Z,13.70
2022-08-26T16:43:59.611Z,12.27
2022-08-26T16:46:27.797Z,10.00
2022-08-26T16:48:57.296Z,12.57
2022-08-26T16:51:27.259Z,16.65
2022-08-26T16:53:55.982Z,11.82
2022-08-26T16:56:27.720Z,11.00
2022-08-26T16:59:06.275Z,11.75
2022-08-26T17:01:33.804Z,30.90
2022-08-26T17:04:01.132Z,25.27
2022-08-26T17:06:28.622Z,18.13
2022-08-26T17:08:55.994Z,13.88
2022-08-26T17:11:23.437Z,19.75
2022-08-26T17:13:50.677Z,16.20
2022-08-26T17:16:19.148Z,14.75
2022-08-26T17:18:47.999Z,12.48
2022-08-26T17:21:15.274Z,15.00
2022-08-26T17:23:43.697Z,15.20
2022-08-26T17:26:12.452Z,11.15
2022-08-26T17:28:40.313Z,18.73
2022-08-26T17:31:08.936Z,13.15
2022-08-26T17:33:36.400Z,15.93
2022-08-26T17:36:06.513Z,14.20
2022-08-26T17:38:33.850Z,14.98
2022-08-26T17:41:01.228Z,13.40
2022-08-26T17:43:28.454Z,12.98
2022-08-26T17:46:06.691Z,14.65
2022-08-26T17:48:36.769Z,15.25
2022-08-26T17:51:12.907Z,11.80
2022-08-26T17:53:41.431Z,17.08
2022-08-26T17:56:11.425Z,15.80
2022-08-26T17:58:39.417Z,10.93
2022-08-26T18:01:06.949Z,16.80
2022-08-26T18:03:35.272Z,21.50
2022-08-26T18:06:04.135Z,19.45
2022-08-26T18:08:31.518Z,14.68
2022-08-26T18:10:59.205Z,14.55
2022-08-26T18:13:26.588Z,21.92
2022-08-26T18:15:54.131Z,15.88
2022-08-26T18:18:21.371Z,13.60
2022-08-26T18:20:51.811Z,17.58
2022-08-26T18:23:20.178Z,15.65
2022-08-26T18:25:47.351Z,19.15
2022-08-26T18:28:14.586Z,15.80
2022-08-26T18:30:43.160Z,21.27
2022-08-26T18:33:12.131Z,17.17
2022-08-26T18:35:40.851Z,16.85
2022-08-26T18:38:11.810Z,12.10
2022-08-26T18:40:42.295Z,16.77
2022-08-26T18:43:10.004Z,13.85
2022-08-26T18:45:37.873Z,14.73
2022-08-26T18:48:05.518Z,15.48
2022-08-26T18:50:33.148Z,16.98
2022-08-26T18:53:01.975Z,21.65
2022-08-26T18:55:29.239Z,25.10
2022-08-26T18:57:56.409Z,21.98
2022-08-26T19:00:23.961Z,19.60
2022-08-26T19:02:51.678Z,22.15
2022-08-26T19:05:19.859Z,15.38
2022-08-26T19:07:47.946Z,15.50
2022-08-26T19:10:15.377Z,14.68
2022-08-26T19:12:42.664Z,17.90
2022-08-26T19:15:11.782Z,18.45
2022-08-26T19:17:38.963Z,14.35
2022-08-26T19:20:06.647Z,16.73
2022-08-26T19:22:34.053Z,14.38
2022-08-26T19:25:01.442Z,11.55
2022-08-26T19:27:29.623Z,10.68
2022-08-26T19:29:57.726Z,15.50
2022-08-26T19:32:25.402Z,13.73
2022-08-26T19:34:53.210Z,16.77
2022-08-26T19:37:21.142Z,17.48
2022-08-26T19:39:48.974Z,19.00
2022-08-26T19:42:16.737Z,19.77
2022-08-26T19:45:03.027Z,18.50
2022-08-26T19:47:30.297Z,18.23
2022-08-26T19:49:57.816Z,16.90
2022-08-26T19:52:30.140Z,18.52
2022-08-26T19:54:58.358Z,15.32
2022-08-26T19:57:25.795Z,14.52
2022-08-26T19:59:52.956Z,15.48
2022-08-26T20:02:20.348Z,14.75
2022-08-26T20:04:47.930Z,12.75
2022-08-26T20:07:18.046Z,13.77
2022-08-26T20:09:47.349Z,13.80
2022-08-26T20:12:15.550Z,13.10
2022-08-26T20:14:43.065Z,13.48
2022-08-26T20:17:11.058Z,11.00
2022-08-26T20:19:57.391Z,11.73
2022-08-26T20:22:24.886Z,14.57
2022-08-26T20:24:52.737Z,11.23
2022-08-26T20:27:22.338Z,11.98
2022-08-26T20:29:49.853Z,11.35
2022-08-26T20:32:19.061Z,12.38
2022-08-26T20:34:46.334Z,12.52
2022-08-26T20:37:13.656Z,17.60
2022-08-26T20:39:41.519Z,17.20
2022-08-26T20:42:20.361Z,12.02
2022-08-26T20:44:54.872Z,12.02
2022-08-26T20:47:22.702Z,13.13
2022-08-26T20:49:52.336Z,15.25
2022-08-26T20:52:20.552Z,14.82
2022-08-26T20:54:47.787Z,14.15
2022-08-26T20:57:15.257Z,12.50
2022-08-26T20:59:43.667Z,11.35
2022-08-26T21:02:10.906Z,9.88
2022-08-26T21:04:38.401Z,11.30
2022-08-26T21:07:05.796Z,8.48
2022-08-26T21:09:33.291Z,12.15
2022-08-26T21:12:00.735Z,11.10
2022-08-26T21:14:28.937Z,14.25
2022-08-26T21:16:57.260Z,9.90
2022-08-26T21:19:24.771Z,10.38
2022-08-26T21:21:52.224Z,9.18
2022-08-26T21:24:19.625Z,12.70
2022-08-26T21:26:47.897Z,12.50
2022-08-26T21:29:15.417Z,10.18
2022-08-26T21:31:46.469Z,12.40
2022-08-26T21:34:17.009Z,11.07
2022-08-26T21:36:46.065Z,12.25
2022-08-26T21:39:14.160Z,10.52
2022-08-26T21:41:43.308Z,13.15
2022-08-26T21:44:11.934Z,10.25
2022-08-26T21:46:39.211Z,12.98
2022-08-26T21:49:08.965Z,10.68
2022-08-26T21:51:42.932Z,10.05
2022-08-26T21:54:12.824Z,9.45
2022-08-26T21:56:46.800Z,9.68
2022-08-26T21:59:16.698Z,9.88
2022-08-26T22:01:44.071Z,10.80
2022-08-26T22:04:11.679Z,9.68
2022-08-26T22:06:45.812Z,10.15
2022-08-26T22:09:14.329Z,12.82
2022-08-26T22:11:42.211Z,8.40
2022-08-26T22:14:10.356Z,12.73
2022-08-26T22:16:37.872Z,10.38
2022-08-26T22:19:05.670Z,7.53
2022-08-26T22:21:34.129Z,9.80
2022-08-26T22:24:02.592Z,11.00
2022-08-26T22:26:32.321Z,8.95
2022-08-26T22:29:00.753Z,10.75
2022-08-26T22:31:37.692Z,15.05
2022-08-26T22:34:11.600Z,13.48
2022-08-26T22:36:44.219Z,11.95
2022-08-26T22:39:17.945Z,7.93
2022-08-26T22:41:46.710Z,11.75
2022-08-26T22:44:15.036Z,8.68
2022-08-26T22:46:43.189Z,8.23
2022-08-26T22:49:12.759Z,9.77
2022-08-26T22:51:40.236Z,12.00
2022-08-26T22:54:08.062Z,7.25
2022-08-26T22:56:36.193Z,9.43
2022-08-26T22:59:04.706Z,7.97
2022-08-26T23:01:35.718Z,9.40
2022-08-26T23:04:03.749Z,10.43
2022-08-26T23:06:31.204Z,10.73
2022-08-26T23:08:58.459Z,14.38
2022-08-26T23:11:25.815Z,10.55
2022-08-26T23:13:53.310Z,11.75
2022-08-26T23:16:21.270Z,8.43
2022-08-26T23:18:48.760Z,13.95
2022-08-26T23:21:16.210Z,10.18
2022-08-26T23:23:45.151Z,9.95
2022-08-26T23:26:16.700Z,9.10
2022-08-26T23:28:45.164Z,9.55
2022-08-26T23:31:12.519Z,11.20
2022-08-26T23:33:58.706Z,7.53
2022-08-26T23:36:26.189Z,11.30
2022-08-26T23:38:53.643Z,9.80
2022-08-26T23:41:24.534Z,10.88
2022-08-26T23:43:52.118Z,12.85
2022-08-26T23:46:19.763Z,10.98
2022-08-26T23:48:47.788Z,10.73
2022-08-26T23:51:33.692Z,9.40
2022-08-26T23:54:00.901Z,8.43
2022-08-26T23:56:29.208Z,11.82
2022-08-26T23:58:56.722Z,9.60
